Time;durP1;ratioP1;P1;durP2;ratioP2;P2;SDS_P1;SDS_P2;PMS_P1;PMS_P2;Temp;Humidity;BMP_temperature;BMP_pressure;BME280_temperature;BME280_humidity;BME280_pressure;Samples;Min_cycle;Max_cycle;Signal;HPM_P1;HPM_P2
2022/04/09 00:02:09;;;;;;;3.67;0.63;;;;;;;;;;4928058;29;20180;-83
2022/04/09 00:05:13;;;;;;;0.80;0.80;;;;;;;;;;4916913;29;20180;-84
2022/04/09 00:08:18;;;;;;;3.53;0.70;;;;;;;;;;4928105;29;20224;-84
2022/04/09 00:11:22;;;;;;;0.93;0.70;;;;;;;;;;4927272;29;20223;-83
2022/04/09 00:14:26;;;;;;;1.53;0.70;;;;;;;;;;4927877;29;20221;-84
2022/04/09 00:17:41;;;;;;;2.23;0.80;;;;;;;;;;4916242;29;20215;-84
2022/04/09 00:20:45;;;;;;;0.80;0.50;;;;;;;;;;4938529;29;20204;-84
2022/04/09 00:23:50;;;;;;;1.30;0.67;;;;;;;;;;4916968;29;20188;-83
2022/04/09 00:26:54;;;;;;;0.90;0.50;;;;;;;;;;4927523;29;20560;-83
2022/04/09 00:29:58;;;;;;;2.53;1.43;;;;;;;;;;4938197;29;20185;-84
2022/04/09 00:33:02;;;;;;;0.90;0.60;;;;;;;;;;4916891;29;20656;-83
2022/04/09 00:36:07;;;;;;;1.60;0.80;;;;;;;;;;4938629;29;20192;-84
2022/04/09 00:39:11;;;;;;;1.17;0.77;;;;;;;;;;4928426;29;20185;-83
2022/04/09 00:42:17;;;;;;;2.43;0.73;;;;;;;;;;4939265;29;20180;-83
2022/04/09 00:45:20;;;;;;;1.20;0.83;;;;;;;;;;4937798;29;20181;-83
2022/04/09 00:48:25;;;;;;;0.80;0.80;;;;;;;;;;4926787;29;20180;-83
2022/04/09 00:51:29;;;;;;;0.70;0.70;;;;;;;;;;4926015;29;20216;-83
2022/04/09 00:54:37;;;;;;;1.47;0.80;;;;;;;;;;4937479;29;20184;-83
2022/04/09 00:57:45;;;;;;;1.00;0.87;;;;;;;;;;4937196;29;20223;-83
2022/04/09 01:00:49;;;;;;;0.80;0.53;;;;;;;;;;4915185;29;20231;-83
2022/04/09 01:03:54;;;;;;;0.77;0.50;;;;;;;;;;4925660;29;20199;-83
2022/04/09 01:07:02;;;;;;;0.43;0.40;;;;;;;;;;4936398;29;20218;-83
2022/04/09 01:10:08;;;;;;;0.73;0.30;;;;;;;;;;4936781;29;20180;-83
2022/04/09 01:13:14;;;;;;;0.40;0.40;;;;;;;;;;4926259;29;20568;-83
2022/04/09 01:16:18;;;;;;;0.40;0.40;;;;;;;;;;4936494;29;20215;-83
2022/04/09 01:19:24;;;;;;;0.77;0.40;;;;;;;;;;4915151;29;20188;-83
2022/04/09 01:22:28;;;;;;;0.40;0.40;;;;;;;;;;4914777;29;20177;-83
2022/04/09 01:25:33;;;;;;;0.90;0.40;;;;;;;;;;4915195;29;20676;-83
2022/04/09 01:28:39;;;;;;;0.57;0.40;;;;;;;;;;4925650;29;20200;-83
2022/04/09 01:31:44;;;;;;;1.33;0.50;;;;;;;;;;4925575;29;20655;-83
2022/04/09 01:34:49;;;;;;;0.40;0.40;;;;;;;;;;4915026;29;20607;-83
2022/04/09 01:37:53;;;;;;;0.83;0.40;;;;;;;;;;4914884;29;20623;-83
2022/04/09 01:40:57;;;;;;;0.53;0.40;;;;;;;;;;4936407;29;20541;-83
2022/04/09 01:44:04;;;;;;;0.40;0.40;;;;;;;;;;4925915;29;20544;-83
2022/04/09 01:47:09;;;;;;;0.40;0.40;;;;;;;;;;4925289;29;20620;-83
2022/04/09 01:50:13;;;;;;;0.40;0.40;;;;;;;;;;4925358;29;20537;-83
2022/04/09 01:53:18;;;;;;;0.40;0.40;;;;;;;;;;4936240;29;20600;-83
2022/04/09 01:56:24;;;;;;;0.40;0.40;;;;;;;;;;4914496;29;20647;-83
2022/04/09 01:59:28;;;;;;;0.43;0.43;;;;;;;;;;4936279;29;20544;-83
2022/04/09 02:02:33;;;;;;;0.40;0.40;;;;;;;;;;4925441;29;20544;-83
2022/04/09 02:05:37;;;;;;;0.50;0.43;;;;;;;;;;4925322;29;20560;-83
2022/04/09 02:08:41;;;;;;;0.40;0.40;;;;;;;;;;4914610;29;20536;-83
2022/04/09 02:11:46;;;;;;;0.40;0.40;;;;;;;;;;4946961;29;20647;-83
2022/04/09 02:14:51;;;;;;;0.40;0.40;;;;;;;;;;4924845;29;20611;-83
2022/04/09 02:17:57;;;;;;;0.40;0.40;;;;;;;;;;4914325;29;20624;-83
2022/04/09 02:21:01;;;;;;;0.30;0.30;;;;;;;;;;4924934;29;20612;-83
2022/04/09 02:24:05;;;;;;;0.57;0.40;;;;;;;;;;4925152;29;20540;-83
2022/04/09 02:27:10;;;;;;;0.40;0.40;;;;;;;;;;4935954;29;21002;-83
2022/04/09 02:30:15;;;;;;;0.50;0.50;;;;;;;;;;4924957;29;20557;-83
2022/04/09 02:33:23;;;;;;;0.50;0.50;;;;;;;;;;4914600;29;20596;-83
2022/04/09 02:36:29;;;;;;;0.60;0.60;;;;;;;;;;4914051;29;20639;-83
2022/04/09 02:39:34;;;;;;;0.70;0.70;;;;;;;;;;4924884;29;20612;-83
2022/04/09 02:42:39;;;;;;;1.10;1.00;;;;;;;;;;4925196;29;20595;-83
2022/04/09 02:45:44;;;;;;;1.63;1.30;;;;;;;;;;4936035;29;21103;-83
2022/04/09 02:48:48;;;;;;;1.20;1.10;;;;;;;;;;4925051;29;20549;-83
2022/04/09 02:51:55;;;;;;;1.67;1.30;;;;;;;;;;4925351;29;20604;-83
2022/04/09 02:55:01;;;;;;;2.37;1.30;;;;;;;;;;4914124;29;20549;-83
2022/04/09 02:58:06;;;;;;;1.80;1.40;;;;;;;;;;4913815;29;20643;-84
2022/04/09 03:01:14;;;;;;;1.53;1.33;;;;;;;;;;4914314;29;20549;-83
2022/04/09 03:04:18;;;;;;;2.40;1.57;;;;;;;;;;4914513;29;21067;-83
2022/04/09 03:07:23;;;;;;;1.50;1.40;;;;;;;;;;4946397;29;20615;-84
2022/04/09 03:10:28;;;;;;;1.77;1.63;;;;;;;;;;4928074;29;20540;-83
2022/04/09 03:13:32;;;;;;;1.67;1.57;;;;;;;;;;4928646;29;20600;-83
2022/04/09 03:16:36;;;;;;;1.57;1.47;;;;;;;;;;4917252;29;20623;-83
2022/04/09 03:19:41;;;;;;;2.13;1.70;;;;;;;;;;4938909;29;20604;-83
2022/04/09 03:22:49;;;;;;;1.43;1.33;;;;;;;;;;4938794;29;20603;-83
2022/04/09 03:26:06;;;;;;;1.60;1.37;;;;;;;;;;4928072;29;20553;-83
2022/04/09 03:29:16;;;;;;;1.67;1.57;;;;;;;;;;4927529;29;20600;-83
2022/04/09 03:32:23;;;;;;;2.10;1.60;;;;;;;;;;4917150;29;20612;-84
2022/04/09 03:35:27;;;;;;;1.97;1.73;;;;;;;;;;4927726;29;20893;-84
2022/04/09 03:38:33;;;;;;;2.43;2.03;;;;;;;;;;4927681;29;20544;-84
2022/04/09 03:41:38;;;;;;;2.10;1.90;;;;;;;;;;4927802;29;20552;-84
2022/04/09 03:44:43;;;;;;;2.47;2.00;;;;;;;;;;4927612;29;20545;-83
2022/04/09 03:47:47;;;;;;;2.20;2.00;;;;;;;;;;4927330;29;20635;-84
2022/04/09 03:50:54;;;;;;;2.70;2.20;;;;;;;;;;4927366;29;21173;-84
2022/04/09 03:53:59;;;;;;;2.57;2.27;;;;;;;;;;4927979;29;20592;-84
2022/04/09 03:57:06;;;;;;;2.50;2.23;;;;;;;;;;4927600;29;21237;-84
2022/04/09 04:00:21;;;;;;;2.90;2.30;;;;;;;;;;4927253;29;20967;-84
2022/04/09 04:03:29;;;;;;;2.57;2.37;;;;;;;;;;4938735;29;20537;-84
2022/04/09 04:06:34;;;;;;;2.80;2.50;;;;;;;;;;4927371;29;20632;-84
2022/04/09 04:09:42;;;;;;;2.43;2.20;;;;;;;;;;4938565;29;20544;-83
2022/04/09 04:12:46;;;;;;;2.20;2.00;;;;;;;;;;4938354;29;21130;-84
2022/04/09 04:15:54;;;;;;;2.20;2.00;;;;;;;;;;4916546;29;20552;-84
2022/04/09 04:18:59;;;;;;;2.57;2.37;;;;;;;;;;4927630;29;20544;-84
2022/04/09 04:22:03;;;;;;;2.50;2.30;;;;;;;;;;4937829;29;20556;-84
2022/04/09 04:25:10;;;;;;;2.60;2.40;;;;;;;;;;4948608;29;20603;-83
2022/04/09 04:28:16;;;;;;;3.87;2.23;;;;;;;;;;4937626;29;20627;-84
2022/04/09 04:31:21;;;;;;;2.83;2.17;;;;;;;;;;4926389;29;21072;-83
2022/04/09 04:34:26;;;;;;;3.87;2.70;;;;;;;;;;4936895;29;20893;-83
2022/04/09 04:37:45;;;;;;;3.87;2.40;;;;;;;;;;4925757;29;20968;-83
2022/04/09 04:40:53;;;;;;;2.33;2.13;;;;;;;;;;4937097;29;20549;-83
2022/04/09 04:43:58;;;;;;;3.33;2.43;;;;;;;;;;4936819;29;20541;-83
2022/04/09 04:47:09;;;;;;;3.90;2.53;;;;;;;;;;4915877;29;20628;-84
2022/04/09 04:50:15;;;;;;;4.10;2.80;;;;;;;;;;4937086;29;20544;-84
2022/04/09 04:53:19;;;;;;;4.70;2.50;;;;;;;;;;4936789;29;20604;-83
2022/04/09 04:56:30;;;;;;;3.73;3.10;;;;;;;;;;4936663;29;21205;-84
2022/04/09 04:59:38;;;;;;;4.53;3.70;;;;;;;;;;4915323;29;20557;-84
2022/04/09 05:02:42;;;;;;;4.50;3.87;;;;;;;;;;4925636;29;20599;-84
2022/04/09 05:05:46;;;;;;;5.47;4.27;;;;;;;;;;4925573;29;20601;-83
2022/04/09 05:08:51;;;;;;;4.93;4.27;;;;;;;;;;4925975;29;20545;-84
2022/04/09 05:12:06;;;;;;;7.00;5.00;;;;;;;;;;4926048;29;21091;-83
2022/04/09 05:15:18;;;;;;;7.03;5.27;;;;;;;;;;4936901;29;20541;-83
2022/04/09 05:18:27;;;;;;;8.27;6.27;;;;;;;;;;4925537;29;20607;-83
2022/04/09 05:21:32;;;;;;;6.97;6.07;;;;;;;;;;4914663;29;21103;-84
2022/04/09 05:24:36;;;;;;;9.87;6.87;;;;;;;;;;4925655;29;20885;-84
2022/04/09 05:27:45;;;;;;;9.80;7.13;;;;;;;;;;4925455;29;20643;-84
2022/04/09 05:31:00;;;;;;;9.40;7.13;;;;;;;;;;4936460;29;20553;-83
2022/04/09 05:34:06;;;;;;;11.50;8.03;;;;;;;;;;4925745;29;20600;-84
2022/04/09 05:37:12;;;;;;;19.87;14.43;;;;;;;;;;4925614;29;20620;-84
2022/04/09 05:40:17;;;;;;;9.40;7.67;;;;;;;;;;4936338;29;20553;-83
2022/04/09 05:43:21;;;;;;;12.00;9.17;;;;;;;;;;4925770;29;20900;-84
2022/04/09 05:46:29;;;;;;;11.03;9.00;;;;;;;;;;4915305;29;20620;-83
2022/04/09 05:49:34;;;;;;;11.10;9.83;;;;;;;;;;4925972;29;20603;-84
2022/04/09 05:52:39;;;;;;;11.63;9.07;;;;;;;;;;4936559;29;20596;-83
2022/04/09 05:55:43;;;;;;;11.23;7.40;;;;;;;;;;4925550;29;20544;-84
2022/04/09 05:58:47;;;;;;;10.33;8.07;;;;;;;;;;4925865;29;20549;-84
2022/04/09 06:01:52;;;;;;;10.13;8.03;;;;;;;;;;4925495;29;20537;-83
2022/04/09 06:04:57;;;;;;;10.70;7.90;;;;;;;;;;4936090;29;20541;-83
2022/04/09 06:08:02;;;;;;;8.57;7.57;;;;;;;;;;4914210;29;20624;-84
2022/04/09 06:11:05;;;;;;;11.27;7.93;;;;;;;;;;4914379;29;20552;-84
2022/04/09 06:14:10;;;;;;;12.80;7.90;;;;;;;;;;4947352;29;20600;-84
2022/04/09 06:17:14;;;;;;;15.23;12.17;;;;;;;;;;4936469;29;20623;-84
2022/04/09 06:20:19;;;;;;;11.87;8.97;;;;;;;;;;4925897;29;20604;-84
2022/04/09 06:23:24;;;;;;;10.47;9.03;;;;;;;;;;4914738;29;20599;-83
2022/04/09 06:26:28;;;;;;;12.10;8.83;;;;;;;;;;4935929;29;20631;-84
2022/04/09 06:29:33;;;;;;;10.87;7.43;;;;;;;;;;4925231;29;20556;-84
2022/04/09 06:32:38;;;;;;;11.57;8.93;;;;;;;;;;4914545;29;20873;-84
2022/04/09 06:35:43;;;;;;;23.10;14.30;;;;;;;;;;4915002;29;20893;-84
2022/04/09 06:38:53;;;;;;;12.53;8.53;;;;;;;;;;4925822;29;20909;-85
2022/04/09 06:42:07;;;;;;;9.77;6.87;;;;;;;;;;4947500;29;20600;-84
2022/04/09 06:45:37;;;;;;;11.13;7.07;;;;;;;;;;4939750;29;20564;-84
2022/04/09 06:49:16;;;;;;;12.00;6.60;;;;;;;;;;4940135;29;20540;-84
2022/04/09 06:52:47;;;;;;;16.10;11.07;;;;;;;;;;4932007;29;20556;-84
2022/04/09 06:56:05;;;;;;;23.70;16.53;;;;;;;;;;4928215;29;20608;-83
2022/04/09 06:59:09;;;;;;;26.47;13.23;;;;;;;;;;4939656;29;20968;-86
2022/04/09 07:02:15;;;;;;;55.90;32.37;;;;;;;;;;4928236;29;20544;-86
2022/04/09 07:05:19;;;;;;;24.87;14.33;;;;;;;;;;4917423;29;20541;-86
2022/04/09 07:08:24;;;;;;;37.53;22.23;;;;;;;;;;4939134;29;20548;-86
2022/04/09 07:11:28;;;;;;;11.07;8.00;;;;;;;;;;4938821;29;20560;-86
2022/04/09 07:14:32;;;;;;;11.80;7.60;;;;;;;;;;4927888;29;20607;-87
2022/04/09 07:17:38;;;;;;;11.87;7.33;;;;;;;;;;4927796;29;20979;-86
2022/04/09 07:20:44;;;;;;;9.23;5.97;;;;;;;;;;4927922;29;20556;-86
2022/04/09 07:23:48;;;;;;;15.07;11.90;;;;;;;;;;4928046;29;20541;-86
2022/04/09 07:26:52;;;;;;;13.13;9.30;;;;;;;;;;4938928;29;20619;-86
2022/04/09 07:29:56;;;;;;;14.03;9.67;;;;;;;;;;4928129;29;20183;-86
2022/04/09 07:33:01;;;;;;;12.13;9.83;;;;;;;;;;4938742;29;20192;-86
2022/04/09 07:36:05;;;;;;;16.90;11.60;;;;;;;;;;4927558;29;20184;-87
2022/04/09 07:39:09;;;;;;;9.30;6.87;;;;;;;;;;4938637;29;20541;-87
2022/04/09 07:42:14;;;;;;;10.57;6.50;;;;;;;;;;4916998;29;20184;-86
2022/04/09 07:45:19;;;;;;;8.97;6.40;;;;;;;;;;4927663;29;20184;-86
2022/04/09 07:48:23;;;;;;;9.53;7.10;;;;;;;;;;4927264;29;20203;-86
2022/04/09 07:51:27;;;;;;;11.97;5.33;;;;;;;;;;4938894;29;20211;-86
2022/04/09 07:54:32;;;;;;;8.87;5.13;;;;;;;;;;4916135;29;20216;-86
2022/04/09 07:57:36;;;;;;;9.83;5.87;;;;;;;;;;4916218;29;20228;-86
2022/04/09 08:00:40;;;;;;;7.27;5.10;;;;;;;;;;4927345;29;20176;-86
2022/04/09 08:03:45;;;;;;;4.50;4.07;;;;;;;;;;4927229;29;20181;-86
2022/04/09 08:06:49;;;;;;;9.10;5.17;;;;;;;;;;4927031;29;20212;-86
2022/04/09 08:09:53;;;;;;;7.87;5.57;;;;;;;;;;4927423;29;20184;-87
2022/04/09 08:12:57;;;;;;;7.80;5.83;;;;;;;;;;4927606;29;20180;-86
2022/04/09 08:16:02;;;;;;;8.20;4.80;;;;;;;;;;4916067;29;20531;-86
2022/04/09 08:19:07;;;;;;;13.97;11.17;;;;;;;;;;4937551;29;20203;-87
2022/04/09 08:22:11;;;;;;;13.83;10.87;;;;;;;;;;4926334;29;20180;-87
2022/04/09 08:25:17;;;;;;;9.17;6.53;;;;;;;;;;4938012;29;20176;-86
2022/04/09 08:28:21;;;;;;;8.07;5.60;;;;;;;;;;4937123;29;20683;-87
2022/04/09 08:31:25;;;;;;;11.23;6.83;;;;;;;;;;4916017;29;20188;-86
2022/04/09 08:34:29;;;;;;;6.90;4.67;;;;;;;;;;4915393;29;20212;-86
2022/04/09 08:37:35;;;;;;;13.57;10.70;;;;;;;;;;4926254;29;20219;-87
2022/04/09 08:40:40;;;;;;;9.27;8.27;;;;;;;;;;4926356;29;20188;-86
2022/04/09 08:43:44;;;;;;;7.47;4.97;;;;;;;;;;4926741;29;20511;-86
2022/04/09 08:46:48;;;;;;;7.50;5.47;;;;;;;;;;4936254;29;20199;-86
2022/04/09 08:49:53;;;;;;;6.30;4.47;;;;;;;;;;4927168;29;20185;-87
2022/04/09 08:53:02;;;;;;;11.83;10.27;;;;;;;;;;4925956;29;20189;-86
2022/04/09 08:56:07;;;;;;;9.00;5.10;;;;;;;;;;4936403;29;20180;-87
2022/04/09 08:59:11;;;;;;;7.90;6.30;;;;;;;;;;4925991;29;20526;-86
2022/04/09 09:02:15;;;;;;;6.97;4.27;;;;;;;;;;4915203;29;20176;-87
2022/04/09 09:05:30;;;;;;;3.37;2.97;;;;;;;;;;4925669;29;20180;-86
2022/04/09 09:08:39;;;;;;;4.63;3.03;;;;;;;;;;4935907;29;20624;-86
2022/04/09 09:11:48;;;;;;;5.20;3.30;;;;;;;;;;4925759;29;20184;-86
2022/04/09 09:14:54;;;;;;;4.83;3.00;;;;;;;;;;4925247;29;20224;-86
2022/04/09 09:17:59;;;;;;;6.13;2.60;;;;;;;;;;4925653;29;20219;-86
2022/04/09 09:21:02;;;;;;;4.20;2.20;;;;;;;;;;4925755;29;20176;-87
2022/04/09 09:24:06;;;;;;;5.53;2.40;;;;;;;;;;4925482;29;20180;-87
2022/04/09 09:27:11;;;;;;;5.70;2.77;;;;;;;;;;4925484;29;20219;-86
2022/04/09 09:30:15;;;;;;;4.00;2.10;;;;;;;;;;4947231;29;20184;-86
2022/04/09 09:33:20;;;;;;;4.63;2.67;;;;;;;;;;4936559;29;20180;-87
2022/04/09 09:36:33;;;;;;;4.30;2.10;;;;;;;;;;4925702;29;20215;-86
2022/04/09 09:39:42;;;;;;;3.70;2.23;;;;;;;;;;4914381;29;20184;-86
2022/04/09 09:42:45;;;;;;;3.90;2.20;;;;;;;;;;4936089;29;20552;-86
2022/04/09 09:45:51;;;;;;;4.50;2.67;;;;;;;;;;4925264;29;20172;-86
2022/04/09 09:48:55;;;;;;;4.33;2.40;;;;;;;;;;4914729;29;20199;-86
2022/04/09 09:52:05;;;;;;;5.60;2.73;;;;;;;;;;4936508;29;20199;-86
2022/04/09 09:55:14;;;;;;;4.57;2.37;;;;;;;;;;4936117;29;20668;-86
2022/04/09 09:58:21;;;;;;;4.47;2.20;;;;;;;;;;4936071;29;20223;-86
2022/04/09 10:01:25;;;;;;;3.27;1.67;;;;;;;;;;4936860;29;20180;-86
2022/04/09 10:04:29;;;;;;;4.10;1.23;;;;;;;;;;4926314;29;20176;-86
2022/04/09 10:07:34;;;;;;;7.07;2.10;;;;;;;;;;4924788;29;20220;-87
2022/04/09 10:10:43;;;;;;;5.07;1.70;;;;;;;;;;4935621;29;20200;-86
2022/04/09 10:13:47;;;;;;;4.33;1.60;;;;;;;;;;4924841;29;20200;-87
2022/04/09 10:16:52;;;;;;;4.67;1.77;;;;;;;;;;4935686;29;20216;-86
2022/04/09 10:20:02;;;;;;;4.07;1.67;;;;;;;;;;4929115;29;20180;-86
2022/04/09 10:23:09;;;;;;;5.43;1.60;;;;;;;;;;4928615;29;20200;-86
2022/04/09 10:26:15;;;;;;;3.73;1.33;;;;;;;;;;4928807;29;20184;-86
2022/04/09 10:29:20;;;;;;;4.40;1.50;;;;;;;;;;4918205;29;20188;-86
2022/04/09 10:32:43;;;;;;;7.67;1.57;;;;;;;;;;4929224;29;20184;-86
2022/04/09 10:35:47;;;;;;;4.73;1.90;;;;;;;;;;4939384;29;20563;-86
2022/04/09 10:39:42;;;;;;;6.50;1.70;;;;;;;;;;4928832;29;20208;-86
2022/04/09 10:42:49;;;;;;;4.33;1.73;;;;;;;;;;4928394;29;20204;-86
2022/04/09 10:46:02;;;;;;;4.87;1.70;;;;;;;;;;4950493;29;20180;-86
2022/04/09 10:49:26;;;;;;;4.23;1.70;;;;;;;;;;4939819;29;20180;-86
2022/04/09 10:52:32;;;;;;;7.33;1.60;;;;;;;;;;4928419;29;20184;-86
2022/04/09 10:55:36;;;;;;;4.40;1.63;;;;;;;;;;4928439;29;20208;-86
2022/04/09 10:59:03;;;;;;;3.33;1.60;;;;;;;;;;4928340;29;20628;-86
2022/04/09 11:02:09;;;;;;;3.80;1.47;;;;;;;;;;4917646;29;20188;-86
2022/04/09 11:05:23;;;;;;;3.63;1.80;;;;;;;;;;4950159;29;20180;-85
2022/04/09 11:08:26;;;;;;;4.67;1.80;;;;;;;;;;4917612;29;20188;-86
2022/04/09 11:11:31;;;;;;;6.03;1.70;;;;;;;;;;4917600;29;20183;-86
2022/04/09 11:14:50;;;;;;;4.50;1.77;;;;;;;;;;4928703;29;20208;-86
2022/04/09 11:18:01;;;;;;;3.23;1.73;;;;;;;;;;4927824;29;20220;-86
2022/04/09 11:21:12;;;;;;;2.90;1.67;;;;;;;;;;4938980;29;20189;-86
2022/04/09 11:24:17;;;;;;;4.80;1.63;;;;;;;;;;4939038;29;20180;-86
2022/04/09 11:27:21;;;;;;;6.77;1.80;;;;;;;;;;4928132;29;20216;-86
2022/04/09 11:30:25;;;;;;;4.13;1.80;;;;;;;;;;4926812;29;20184;-86
2022/04/09 11:33:30;;;;;;;4.73;1.70;;;;;;;;;;4938710;29;20180;-86
2022/04/09 11:36:35;;;;;;;3.10;1.63;;;;;;;;;;4927697;29;20220;-86
2022/04/09 11:39:40;;;;;;;4.57;2.40;;;;;;;;;;4928387;29;20184;-86
2022/04/09 11:42:52;;;;;;;6.23;4.00;;;;;;;;;;4938571;29;20200;-86
2022/04/09 11:46:03;;;;;;;4.87;1.67;;;;;;;;;;4938310;29;20188;-86
2022/04/09 11:49:07;;;;;;;4.67;1.40;;;;;;;;;;4927204;29;20335;-86
2022/04/09 11:52:11;;;;;;;3.97;1.50;;;;;;;;;;4927205;29;20555;-86
2022/04/09 11:55:16;;;;;;;6.10;1.70;;;;;;;;;;4927785;29;20204;-86
2022/04/09 11:58:29;;;;;;;5.60;1.50;;;;;;;;;;4927131;29;20220;-86
2022/04/09 12:01:33;;;;;;;4.77;1.40;;;;;;;;;;4938121;29;20180;-86
2022/04/09 12:04:37;;;;;;;1.90;1.20;;;;;;;;;;4916613;29;20180;-86
2022/04/09 12:07:43;;;;;;;4.13;1.53;;;;;;;;;;4948356;28;20219;-86
2022/04/09 12:10:54;;;;;;;4.50;1.30;;;;;;;;;;4916351;29;20192;-86
2022/04/09 12:14:15;;;;;;;6.13;1.33;;;;;;;;;;4927126;29;20188;-86
2022/04/09 12:17:22;;;;;;;3.37;1.40;;;;;;;;;;4948810;28;20231;-86
2022/04/09 12:20:32;;;;;;;4.97;1.30;;;;;;;;;;4926889;29;20180;-85
2022/04/09 12:23:36;;;;;;;2.23;1.17;;;;;;;;;;4937717;29;20188;-86
2022/04/09 12:26:43;;;;;;;3.30;1.57;;;;;;;;;;4926567;29;20216;-86
2022/04/09 12:29:54;;;;;;;1.70;1.20;;;;;;;;;;4937357;29;20184;-86
2022/04/09 12:33:09;;;;;;;2.40;1.20;;;;;;;;;;4926478;29;20196;-86
2022/04/09 12:36:18;;;;;;;3.97;1.30;;;;;;;;;;4926886;29;20580;-86
2022/04/09 12:39:26;;;;;;;2.80;1.23;;;;;;;;;;4915654;29;20185;-86
2022/04/09 12:42:33;;;;;;;4.17;1.33;;;;;;;;;;4926835;29;20180;-86
2022/04/09 12:45:37;;;;;;;4.93;1.57;;;;;;;;;;4915284;29;20172;-86
2022/04/09 12:48:46;;;;;;;4.83;1.40;;;;;;;;;;4926483;29;20184;-86
2022/04/09 12:51:52;;;;;;;2.97;1.10;;;;;;;;;;4926080;29;20212;-86
2022/04/09 12:54:56;;;;;;;5.03;1.63;;;;;;;;;;4936661;29;20228;-86
2022/04/09 12:58:01;;;;;;;3.63;1.30;;;;;;;;;;4965881;23;20226;-87
2022/04/09 13:01:07;;;;;;;4.53;1.40;;;;;;;;;;4964158;28;20171;-86
2022/04/09 13:04:11;;;;;;;3.97;1.50;;;;;;;;;;4953536;28;20630;-89
2022/04/09 13:07:15;;;;;;;4.40;1.20;;;;;;;;;;4952992;28;20171;-87
2022/04/09 13:10:20;;;;;;;11.03;4.80;;;;;;;;;;4964136;28;20183;-86
2022/04/09 13:13:24;;;;;;;3.23;1.30;;;;;;;;;;4953559;28;20202;-88
2022/04/09 13:16:28;;;;;;;2.20;1.00;;;;;;;;;;4952734;28;20227;-88
2022/04/09 13:19:35;;;;;;;3.47;1.50;;;;;;;;;;4953183;28;20178;-86
2022/04/09 13:22:39;;;;;;;4.47;1.17;;;;;;;;;;4963980;28;20187;-86
2022/04/09 13:25:44;;;;;;;3.53;1.40;;;;;;;;;;4952939;28;20182;-86
2022/04/09 13:28:48;;;;;;;3.13;1.20;;;;;;;;;;4963520;28;20218;-88
2022/04/09 13:31:52;;;;;;;4.97;1.27;;;;;;;;;;4952565;28;20203;-87
2022/04/09 13:34:56;;;;;;;3.63;1.17;;;;;;;;;;4953001;28;20210;-88
2022/04/09 13:38:00;;;;;;;5.47;1.30;;;;;;;;;;4952189;28;20226;-88
2022/04/09 13:41:04;;;;;;;3.07;1.30;;;;;;;;;;4952297;28;20199;-88
2022/04/09 13:44:09;;;;;;;3.83;1.70;;;;;;;;;;4952568;28;20182;-88
2022/04/09 13:47:13;;;;;;;11.10;5.23;;;;;;;;;;4963567;28;20175;-88
2022/04/09 13:50:18;;;;;;;4.77;2.93;;;;;;;;;;4974812;28;20186;-88
2022/04/09 13:53:21;;;;;;;29.97;16.00;;;;;;;;;;4951966;28;20182;-88
2022/04/09 13:56:26;;;;;;;4.20;1.50;;;;;;;;;;4952846;28;20217;-89
2022/04/09 13:59:30;;;;;;;3.53;1.37;;;;;;;;;;4952584;28;20179;-87
2022/04/09 14:02:34;;;;;;;7.93;1.57;;;;;;;;;;4963413;28;20178;-87
2022/04/09 14:05:39;;;;;;;5.77;1.30;;;;;;;;;;4952689;28;20179;-86
2022/04/09 14:08:42;;;;;;;4.47;1.40;;;;;;;;;;4952556;28;20566;-86
2022/04/09 14:11:47;;;;;;;5.83;1.67;;;;;;;;;;4963544;28;20191;-88
2022/04/09 14:14:52;;;;;;;4.23;1.00;;;;;;;;;;4952140;28;20187;-89
2022/04/09 14:17:56;;;;;;;2.83;1.30;;;;;;;;;;4952343;28;20218;-87
2022/04/09 14:21:00;;;;;;;2.73;1.23;;;;;;;;;;4963105;28;20526;-88
2022/04/09 14:24:05;;;;;;;4.27;1.20;;;;;;;;;;4952309;28;20527;-90
2022/04/09 14:27:10;;;;;;;4.47;1.20;;;;;;;;;;4952258;28;20179;-88
2022/04/09 14:30:14;;;;;;;4.47;1.37;;;;;;;;;;4951886;28;20202;-90
2022/04/09 14:33:20;;;;;;;2.93;1.60;;;;;;;;;;4963159;28;20187;-90
2022/04/09 14:36:24;;;;;;;3.13;1.10;;;;;;;;;;4951841;28;20218;-90
2022/04/09 14:39:28;;;;;;;4.77;1.53;;;;;;;;;;4963268;28;20187;-90
2022/04/09 14:42:32;;;;;;;3.17;1.13;;;;;;;;;;4974240;28;20178;-88
2022/04/09 14:45:37;;;;;;;4.03;1.17;;;;;;;;;;4974071;28;20634;-88
2022/04/09 14:48:41;;;;;;;3.93;1.20;;;;;;;;;;4974106;28;20218;-88
2022/04/09 14:51:45;;;;;;;3.10;1.13;;;;;;;;;;4963069;28;20199;-88
2022/04/09 14:54:50;;;;;;;4.63;1.20;;;;;;;;;;4952034;28;20638;-88
2022/04/09 14:57:54;;;;;;;2.33;1.40;;;;;;;;;;4952032;28;20597;-88
2022/04/09 15:00:58;;;;;;;4.17;1.67;;;;;;;;;;4962735;28;20179;-88
2022/04/09 15:04:02;;;;;;;5.97;1.10;;;;;;;;;;4952519;28;20183;-89
2022/04/09 15:07:06;;;;;;;3.87;1.53;;;;;;;;;;4955219;28;20179;-89
2022/04/09 15:10:10;;;;;;;4.07;1.27;;;;;;;;;;4955715;28;20182;-89
2022/04/09 15:13:14;;;;;;;7.30;2.63;;;;;;;;;;4966169;28;20187;-90
2022/04/09 15:16:18;;;;;;;3.73;1.37;;;;;;;;;;4954959;28;20210;-89
2022/04/09 15:19:23;;;;;;;3.53;1.47;;;;;;;;;;4966217;28;20211;-89
2022/04/09 15:22:27;;;;;;;4.43;1.43;;;;;;;;;;4954852;28;20642;-87
2022/04/09 15:25:31;;;;;;;5.90;1.43;;;;;;;;;;4955665;28;20183;-87
2022/04/09 15:28:35;;;;;;;4.37;1.90;;;;;;;;;;4955169;28;20214;-89
2022/04/09 15:31:40;;;;;;;5.10;2.23;;;;;;;;;;4966235;28;20187;-87
2022/04/09 15:34:44;;;;;;;12.30;6.67;;;;;;;;;;4954809;28;20187;-89
2022/04/09 15:37:48;;;;;;;2.27;1.67;;;;;;;;;;4955112;28;20215;-87
2022/04/09 15:40:52;;;;;;;3.73;2.23;;;;;;;;;;4954471;28;20199;-89
2022/04/09 15:43:56;;;;;;;4.20;1.83;;;;;;;;;;4954685;28;20187;-89
2022/04/09 15:47:00;;;;;;;3.50;1.60;;;;;;;;;;4954851;28;20179;-88
2022/04/09 15:50:05;;;;;;;4.27;1.77;;;;;;;;;;4954688;28;20179;-87
2022/04/09 15:53:12;;;;;;;5.67;1.73;;;;;;;;;;4976780;28;20187;-87
2022/04/09 15:56:16;;;;;;;4.73;1.50;;;;;;;;;;4954295;28;20210;-89
2022/04/09 15:59:21;;;;;;;5.73;2.70;;;;;;;;;;4954090;28;20248;-87
2022/04/09 16:02:26;;;;;;;4.13;1.60;;;;;;;;;;4954345;28;20561;-87
2022/04/09 16:05:30;;;;;;;5.17;1.80;;;;;;;;;;4954619;28;20187;-87
2022/04/09 16:08:34;;;;;;;4.53;1.57;;;;;;;;;;4976693;28;20218;-89
2022/04/09 16:11:38;;;;;;;3.63;1.60;;;;;;;;;;4954363;28;20183;-87
2022/04/09 16:14:42;;;;;;;5.33;1.50;;;;;;;;;;4954161;28;20554;-87
2022/04/09 16:17:49;;;;;;;4.10;1.57;;;;;;;;;;4965170;28;20230;-88
2022/04/09 16:20:53;;;;;;;4.00;1.60;;;;;;;;;;4965051;28;20642;-89
2022/04/09 16:23:58;;;;;;;5.97;1.60;;;;;;;;;;4976287;28;20183;-89
2022/04/09 16:27:02;;;;;;;4.13;1.30;;;;;;;;;;4953511;28;20524;-90
2022/04/09 16:30:08;;;;;;;3.63;1.93;;;;;;;;;;4953096;28;20191;-88
2022/04/09 16:33:11;;;;;;;7.77;1.83;;;;;;;;;;4952927;28;20199;-87
2022/04/09 16:36:17;;;;;;;2.70;1.20;;;;;;;;;;4953126;28;20219;-87
2022/04/09 16:39:21;;;;;;;3.67;1.50;;;;;;;;;;4975306;28;20581;-87
2022/04/09 16:42:26;;;;;;;16.33;10.13;;;;;;;;;;4943065;29;20191;-86
2022/04/09 16:45:30;;;;;;;4.77;2.40;;;;;;;;;;4965258;28;20198;-88
2022/04/09 16:48:34;;;;;;;3.57;1.63;;;;;;;;;;4953460;28;20210;-86
2022/04/09 16:51:38;;;;;;;2.70;1.40;;;;;;;;;;4945205;29;20199;-89
2022/04/09 16:54:43;;;;;;;4.87;2.83;;;;;;;;;;4941853;28;20194;-86
2022/04/09 16:57:48;;;;;;;2.40;1.10;;;;;;;;;;4960086;28;20222;-87
2022/04/09 17:00:51;;;;;;;4.93;1.50;;;;;;;;;;4944728;29;20195;-88
2022/04/09 17:03:55;;;;;;;4.00;1.53;;;;;;;;;;4934810;29;20184;-88
2022/04/09 17:07:00;;;;;;;6.47;1.77;;;;;;;;;;4940316;28;20187;-86
2022/04/09 17:10:05;;;;;;;4.03;1.60;;;;;;;;;;4975128;28;20202;-88
2022/04/09 17:13:09;;;;;;;2.63;1.50;;;;;;;;;;4953052;28;20622;-88
2022/04/09 17:16:13;;;;;;;4.77;1.27;;;;;;;;;;4953233;28;20219;-87
2022/04/09 17:19:17;;;;;;;3.43;1.90;;;;;;;;;;4964386;28;20314;-86
2022/04/09 17:22:21;;;;;;;5.30;1.60;;;;;;;;;;4949834;28;20554;-87
2022/04/09 17:25:26;;;;;;;7.97;2.50;;;;;;;;;;4954040;28;20545;-87
2022/04/09 17:28:34;;;;;;;5.83;1.37;;;;;;;;;;4936133;28;20211;-87
2022/04/09 17:31:38;;;;;;;4.23;1.40;;;;;;;;;;4945278;29;20646;-85
2022/04/09 17:34:42;;;;;;;2.37;1.30;;;;;;;;;;4963430;28;20187;-88
2022/04/09 17:37:47;;;;;;;2.63;1.37;;;;;;;;;;4952588;28;20226;-87
2022/04/09 17:40:52;;;;;;;2.93;1.37;;;;;;;;;;4957139;28;20182;-87
2022/04/09 17:43:56;;;;;;;2.53;2.30;;;;;;;;;;4963793;28;20199;-87
2022/04/09 17:47:01;;;;;;;6.27;4.20;;;;;;;;;;4952147;28;20202;-86
2022/04/09 17:50:06;;;;;;;7.17;3.10;;;;;;;;;;4959058;28;20182;-87
2022/04/09 17:53:10;;;;;;;4.53;2.80;;;;;;;;;;4974140;28;20179;-88
2022/04/09 17:56:14;;;;;;;10.87;8.60;;;;;;;;;;4951867;28;20202;-87
2022/04/09 17:59:18;;;;;;;5.73;3.87;;;;;;;;;;4943595;29;20591;-88
2022/04/09 18:02:23;;;;;;;4.80;2.07;;;;;;;;;;4943978;29;20658;-88
2022/04/09 18:05:27;;;;;;;3.27;1.30;;;;;;;;;;4955711;29;20645;-87
2022/04/09 18:08:31;;;;;;;4.60;1.30;;;;;;;;;;4955609;28;20215;-88
2022/04/09 18:11:35;;;;;;;6.47;1.73;;;;;;;;;;4972613;28;20183;-88
2022/04/09 18:14:39;;;;;;;3.20;1.37;;;;;;;;;;4950059;28;20198;-88
2022/04/09 18:17:44;;;;;;;3.47;1.40;;;;;;;;;;4952304;28;20234;-88
2022/04/09 18:20:48;;;;;;;4.53;1.57;;;;;;;;;;4963210;28;20191;-88
2022/04/09 18:23:52;;;;;;;4.10;1.60;;;;;;;;;;4952994;28;20183;-87
2022/04/09 18:26:56;;;;;;;3.70;2.00;;;;;;;;;;4943746;29;20184;-88
2022/04/09 18:30:00;;;;;;;4.27;1.70;;;;;;;;;;4953703;28;20551;-88
2022/04/09 18:33:05;;;;;;;3.60;1.43;;;;;;;;;;4950773;28;20198;-88